Time;durP1;ratioP1;P1;durP2;ratioP2;P2;SDS_P1;SDS_P2;PMS_P1;PMS_P2;Temp;Humidity;BMP_temperature;BMP_pressure;BME280_temperature;BME280_humidity;BME280_pressure;Samples;Min_cycle;Max_cycle;Signal;HPM_P1;HPM_P2
2021/04/13 00:01:13;;;;;;;15.63;10.52;;;1.40;99.90;;;;;;4751602;30;20059;-81
2021/04/13 00:03:48;;;;;;;16.20;9.93;;;1.40;99.90;;;;;;4737775;30;20044;-81
2021/04/13 00:06:36;;;;;;;15.55;10.55;;;1.40;99.90;;;;;;4737626;30;20072;-81
2021/04/13 00:09:21;;;;;;;14.68;9.48;;;1.50;99.90;;;;;;4736581;30;20055;-81
2021/04/13 00:12:01;;;;;;;17.42;10.18;;;1.60;99.90;;;;;;4743511;30;20051;-80
2021/04/13 00:14:41;;;;;;;15.88;10.13;;;1.60;99.90;;;;;;4754406;30;20052;-81
2021/04/13 00:17:17;;;;;;;15.52;10.27;;;1.60;99.90;;;;;;4738569;30;20080;-81
2021/04/13 00:20:17;;;;;;;15.88;10.52;;;1.70;99.90;;;;;;4738149;30;20093;-81
2021/04/13 00:22:49;;;;;;;15.65;9.85;;;1.70;99.90;;;;;;4751877;30;20051;-81
2021/04/13 00:25:34;;;;;;;16.42;10.77;;;1.70;99.90;;;;;;4738235;30;20056;-81
2021/04/13 00:28:01;;;;;;;15.20;10.00;;;1.70;99.90;;;;;;4737148;30;20072;-81
2021/04/13 00:30:46;;;;;;;15.40;9.60;;;1.70;99.90;;;;;;4738271;30;20138;-81
2021/04/13 00:33:31;;;;;;;16.23;10.13;;;1.70;99.90;;;;;;4738428;30;20068;-81
2021/04/13 00:36:10;;;;;;;15.18;10.38;;;1.70;99.90;;;;;;4737586;30;20603;-81
2021/04/13 00:38:43;;;;;;;17.48;10.93;;;1.70;99.90;;;;;;4737594;30;20052;-81
2021/04/13 00:41:27;;;;;;;17.20;10.82;;;1.70;99.90;;;;;;4738032;30;20093;-81
2021/04/13 00:44:03;;;;;;;16.45;10.52;;;1.70;99.90;;;;;;4739825;30;20604;-81
2021/04/13 00:46:47;;;;;;;14.50;9.00;;;1.70;99.90;;;;;;4741775;30;20059;-81
2021/04/13 00:49:17;;;;;;;16.08;9.68;;;1.60;99.90;;;;;;4741209;30;20055;-81
2021/04/13 00:51:52;;;;;;;15.65;10.30;;;1.60;99.90;;;;;;4738902;30;20055;-81
2021/04/13 00:54:35;;;;;;;17.83;10.30;;;1.60;99.90;;;;;;4741041;30;20055;-81
2021/04/13 00:57:08;;;;;;;13.70;9.63;;;1.50;99.90;;;;;;4741051;30;20466;-81
2021/04/13 00:59:39;;;;;;;18.25;11.18;;;1.40;99.90;;;;;;4740489;30;20130;-81
2021/04/13 01:02:10;;;;;;;16.02;10.70;;;1.40;99.90;;;;;;4755421;30;20059;-81
2021/04/13 01:04:44;;;;;;;16.80;10.80;;;1.40;99.90;;;;;;4741050;30;20139;-81
2021/04/13 01:07:15;;;;;;;13.98;9.68;;;1.40;99.90;;;;;;4740964;30;20055;-81
2021/04/13 01:09:49;;;;;;;16.42;10.70;;;1.40;99.90;;;;;;4740007;30;20425;-81
2021/04/13 01:12:28;;;;;;;16.80;10.75;;;1.40;99.90;;;;;;4741211;30;20059;-81
2021/04/13 01:14:56;;;;;;;17.17;10.93;;;1.50;99.90;;;;;;4755229;30;20060;-81
2021/04/13 01:17:24;;;;;;;17.98;10.90;;;1.50;99.90;;;;;;4755621;30;20048;-81
2021/04/13 01:20:06;;;;;;;16.10;11.55;;;1.50;99.90;;;;;;4741745;30;20048;-81
2021/04/13 01:22:48;;;;;;;16.63;10.80;;;1.60;99.90;;;;;;4741959;30;20044;-81
2021/04/13 01:25:17;;;;;;;16.95;11.50;;;1.60;99.90;;;;;;4742044;30;20072;-81
2021/04/13 01:27:54;;;;;;;18.52;10.98;;;1.60;99.90;;;;;;4741292;30;20056;-81
2021/04/13 01:30:49;;;;;;;15.35;10.27;;;1.70;99.90;;;;;;4742540;30;20083;-81
2021/04/13 01:33:54;;;;;;;16.63;11.25;;;1.70;99.90;;;;;;4742754;30;20048;-81
2021/04/13 01:36:29;;;;;;;15.95;10.50;;;1.80;99.90;;;;;;4757587;30;20056;-81
2021/04/13 01:39:12;;;;;;;14.50;9.90;;;1.80;99.90;;;;;;4758107;30;20151;-81
2021/04/13 01:42:20;;;;;;;16.13;10.77;;;1.80;99.90;;;;;;4743045;30;20547;-81
2021/04/13 01:44:42;;;;;;;17.33;10.77;;;1.80;99.90;;;;;;4754570;30;20087;-81
2021/04/13 01:47:11;;;;;;;17.30;10.45;;;1.80;99.90;;;;;;4740994;30;20162;-81
2021/04/13 01:49:46;;;;;;;15.70;10.35;;;1.80;99.90;;;;;;4742094;30;20493;-81
2021/04/13 01:52:24;;;;;;;17.60;11.20;;;1.70;99.90;;;;;;4741511;30;20055;-81
2021/04/13 01:55:05;;;;;;;20.88;11.98;;;1.60;99.90;;;;;;4741696;30;20700;-81
2021/04/13 01:57:40;;;;;;;17.65;10.77;;;1.60;99.90;;;;;;4741314;30;20047;-81
2021/04/13 02:00:13;;;;;;;16.05;11.43;;;1.50;99.90;;;;;;4755868;30;20075;-81
2021/04/13 02:02:52;;;;;;;17.60;10.80;;;1.50;99.90;;;;;;4771196;30;20409;-81
2021/04/13 02:05:28;;;;;;;17.60;11.20;;;1.50;99.90;;;;;;4755878;30;20052;-81
2021/04/13 02:08:09;;;;;;;17.17;11.30;;;1.50;99.90;;;;;;4741550;30;20136;-81
2021/04/13 02:10:46;;;;;;;19.08;11.32;;;1.60;99.90;;;;;;4742331;30;20054;-81
2021/04/13 02:13:36;;;;;;;15.13;10.48;;;1.50;99.90;;;;;;4742800;30;20516;-81
2021/04/13 02:16:12;;;;;;;15.75;10.88;;;1.50;99.90;;;;;;4757167;30;20080;-81
2021/04/13 02:18:45;;;;;;;16.08;10.90;;;1.50;99.90;;;;;;4771351;30;20055;-81
2021/04/13 02:21:28;;;;;;;16.00;11.02;;;1.50;99.90;;;;;;4771588;30;20047;-81
2021/04/13 02:24:00;;;;;;;16.08;10.45;;;1.50;99.90;;;;;;4742305;30;20052;-81
2021/04/13 02:26:31;;;;;;;16.52;11.15;;;1.50;99.90;;;;;;4757109;30;20059;-81
2021/04/13 02:28:58;;;;;;;15.95;10.93;;;1.50;99.90;;;;;;4771824;30;20056;-81
2021/04/13 02:31:37;;;;;;;18.13;11.68;;;1.50;99.90;;;;;;4741933;30;20059;-81
2021/04/13 02:34:29;;;;;;;17.38;10.95;;;1.40;99.90;;;;;;4743179;30;20352;-82
2021/04/13 02:37:24;;;;;;;17.38;11.55;;;1.30;99.90;;;;;;4742651;30;20052;-82
2021/04/13 02:39:52;;;;;;;17.90;11.40;;;1.30;99.90;;;;;;4757106;30;20048;-81
2021/04/13 02:42:23;;;;;;;17.55;12.15;;;1.30;99.90;;;;;;4757333;30;20063;-81
2021/04/13 02:45:02;;;;;;;19.00;11.70;;;1.40;99.90;;;;;;4756905;30;20125;-82
2021/04/13 02:47:31;;;;;;;21.08;13.10;;;1.40;99.90;;;;;;4756855;30;20538;-82
2021/04/13 02:50:02;;;;;;;20.88;13.70;;;1.30;99.90;;;;;;4741651;30;20056;-81
2021/04/13 02:52:33;;;;;;;19.85;13.40;;;1.30;99.90;;;;;;4742540;30;20062;-82
2021/04/13 02:55:03;;;;;;;19.92;13.32;;;1.30;99.90;;;;;;4741761;30;20066;-82
2021/04/13 02:57:39;;;;;;;20.08;12.15;;;1.30;99.90;;;;;;4741916;30;20064;-81
2021/04/13 03:00:20;;;;;;;17.88;12.02;;;1.30;99.90;;;;;;4741228;30;20074;-81
2021/04/13 03:02:55;;;;;;;16.98;11.93;;;1.30;99.90;;;;;;4741402;30;20047;-82
2021/04/13 03:05:25;;;;;;;19.67;12.05;;;1.30;99.90;;;;;;4744148;30;20078;-81
2021/04/13 03:07:53;;;;;;;18.05;12.30;;;1.30;99.90;;;;;;4776000;30;20416;-81
2021/04/13 03:10:32;;;;;;;18.52;12.18;;;1.30;99.90;;;;;;4743335;30;20059;-81
2021/04/13 03:13:05;;;;;;;17.60;11.48;;;1.30;99.90;;;;;;4757563;30;20168;-82
2021/04/13 03:15:32;;;;;;;18.75;12.25;;;1.30;99.90;;;;;;4757086;30;20051;-82
2021/04/13 03:18:02;;;;;;;18.45;12.40;;;1.20;99.90;;;;;;4757522;30;20131;-81
2021/04/13 03:20:45;;;;;;;17.15;11.70;;;1.20;99.90;;;;;;4742530;30;20587;-82
2021/04/13 03:23:13;;;;;;;19.17;11.90;;;1.20;99.90;;;;;;4743120;30;20146;-82
2021/04/13 03:26:05;;;;;;;17.83;12.00;;;1.20;99.90;;;;;;4742272;30;20472;-81
2021/04/13 03:28:49;;;;;;;19.38;12.95;;;1.20;99.90;;;;;;4758039;30;20047;-81
2021/04/13 03:31:19;;;;;;;19.17;12.35;;;1.10;99.90;;;;;;4767703;30;20131;-82
2021/04/13 03:33:48;;;;;;;17.05;12.20;;;1.10;99.90;;;;;;4752448;30;20048;-82
2021/04/13 03:36:45;;;;;;;17.63;11.38;;;1.10;99.90;;;;;;4766195;30;20095;-82
2021/04/13 03:39:38;;;;;;;20.88;12.73;;;1.00;99.90;;;;;;4750810;30;20058;-82
2021/04/13 03:42:06;;;;;;;21.50;13.07;;;1.10;99.90;;;;;;4764344;30;20044;-82
2021/04/13 03:47:36;;;;;;;19.70;12.23;;;1.00;99.90;;;;;;4754527;30;20059;-82
2021/04/13 03:50:06;;;;;;;18.15;11.80;;;1.00;99.90;;;;;;4750196;30;20051;-82
2021/04/13 03:52:34;;;;;;;19.50;12.63;;;1.00;99.90;;;;;;4750699;30;20090;-82
2021/04/13 03:55:14;;;;;;;22.27;12.98;;;1.00;99.90;;;;;;4746915;30;20060;-82
2021/04/13 03:57:51;;;;;;;19.95;13.95;;;1.00;99.90;;;;;;4740244;30;20086;-80
2021/04/13 04:00:26;;;;;;;19.83;13.35;;;0.90;99.90;;;;;;4768193;30;20052;-79
2021/04/13 04:02:57;;;;;;;21.98;12.73;;;0.90;99.90;;;;;;4753923;30;20052;-80
2021/04/13 04:05:44;;;;;;;19.67;13.35;;;0.90;99.90;;;;;;4739886;30;20228;-78
2021/04/13 04:08:48;;;;;;;17.60;12.52;;;0.90;99.90;;;;;;4753493;30;20504;-79
2021/04/13 04:11:32;;;;;;;17.70;12.30;;;0.90;99.90;;;;;;4753531;30;20056;-79
2021/04/13 04:14:03;;;;;;;20.63;12.55;;;0.80;99.90;;;;;;4739973;30;20424;-79
2021/04/13 04:16:35;;;;;;;19.75;12.68;;;0.80;99.90;;;;;;4739110;30;20048;-79
2021/04/13 04:19:23;;;;;;;18.17;12.13;;;0.80;99.90;;;;;;4739954;30;20151;-79
2021/04/13 04:22:14;;;;;;;18.95;13.10;;;0.80;99.90;;;;;;4729616;30;20051;-79
2021/04/13 04:24:46;;;;;;;21.33;12.50;;;0.80;99.90;;;;;;4741323;30;20135;-78
2021/04/13 04:27:37;;;;;;;19.35;12.85;;;0.80;99.90;;;;;;4735861;30;20075;-79
2021/04/13 04:30:25;;;;;;;20.23;13.48;;;0.70;99.90;;;;;;4745713;30;20139;-79
2021/04/13 04:32:58;;;;;;;20.98;13.10;;;0.70;99.90;;;;;;4723479;30;20051;-78
2021/04/13 04:35:30;;;;;;;18.55;12.80;;;0.70;99.90;;;;;;4724605;30;20056;-78
2021/04/13 04:38:21;;;;;;;19.92;11.90;;;0.60;99.90;;;;;;4724153;30;20508;-78
2021/04/13 04:40:54;;;;;;;19.25;12.77;;;0.60;99.90;;;;;;4739475;30;20109;-79
2021/04/13 04:43:58;;;;;;;20.40;12.55;;;0.60;99.90;;;;;;4738789;30;20410;-78
2021/04/13 04:46:42;;;;;;;18.08;11.82;;;0.60;99.90;;;;;;4739837;30;20056;-78
2021/04/13 04:49:16;;;;;;;18.02;12.27;;;0.60;99.90;;;;;;4739074;30;20082;-78
2021/04/13 04:51:46;;;;;;;18.67;12.43;;;0.60;99.90;;;;;;4738917;30;20548;-78
2021/04/13 04:54:18;;;;;;;20.42;12.32;;;0.60;99.90;;;;;;4725130;30;20119;-78
2021/04/13 04:56:49;;;;;;;22.30;12.63;;;0.60;99.90;;;;;;4752996;30;20575;-78
2021/04/13 04:59:20;;;;;;;20.00;12.63;;;0.60;99.90;;;;;;4723710;30;20352;-78
2021/04/13 05:01:52;;;;;;;15.73;11.43;;;0.60;99.90;;;;;;4723133;30;20561;-79
2021/04/13 05:04:23;;;;;;;19.15;12.57;;;0.60;99.90;;;;;;4736896;30;20052;-78
2021/04/13 05:06:54;;;;;;;16.20;11.82;;;0.60;99.90;;;;;;4722474;30;20480;-78
2021/04/13 05:09:25;;;;;;;19.38;13.07;;;0.60;99.90;;;;;;4737972;30;20070;-79
2021/04/13 05:11:51;;;;;;;21.30;12.63;;;0.60;99.90;;;;;;4767780;30;20142;-79
2021/04/13 05:14:22;;;;;;;20.52;13.02;;;0.60;99.90;;;;;;4722057;30;20386;-78
2021/04/13 05:16:54;;;;;;;18.65;11.80;;;0.60;99.90;;;;;;4737376;30;20048;-79
2021/04/13 05:19:26;;;;;;;18.48;11.95;;;0.70;99.90;;;;;;4718272;30;20048;-79
2021/04/13 05:21:57;;;;;;;18.20;11.98;;;0.70;99.90;;;;;;4733381;30;20102;-78
2021/04/13 05:24:29;;;;;;;21.27;12.25;;;0.70;99.90;;;;;;4717835;30;20135;-78
2021/04/13 05:27:00;;;;;;;17.77;12.05;;;0.70;99.90;;;;;;4717040;30;20528;-78
2021/04/13 05:29:31;;;;;;;19.83;12.35;;;0.70;99.90;;;;;;4721155;30;20147;-78
2021/04/13 05:32:02;;;;;;;17.63;11.68;;;0.80;99.90;;;;;;4719918;30;20054;-78
2021/04/13 05:34:34;;;;;;;18.77;12.73;;;0.80;99.90;;;;;;4734777;30;20146;-79
2021/04/13 05:37:05;;;;;;;18.50;12.77;;;0.80;99.90;;;;;;4734760;30;20086;-78
2021/04/13 05:39:37;;;;;;;19.27;12.40;;;0.90;99.90;;;;;;4719689;30;20063;-78
2021/04/13 05:42:25;;;;;;;19.13;12.05;;;0.90;99.90;;;;;;4720695;30;20086;-78
2021/04/13 05:44:58;;;;;;;18.50;11.30;;;0.90;99.90;;;;;;4751409;30;20058;-78
2021/04/13 05:47:32;;;;;;;19.73;12.73;;;1.00;99.90;;;;;;4730669;30;20044;-79
2021/04/13 05:50:06;;;;;;;18.25;12.60;;;1.10;99.90;;;;;;4716602;30;20059;-78
2021/04/13 05:52:37;;;;;;;15.32;10.65;;;1.10;99.90;;;;;;4702351;30;20048;-78
2021/04/13 05:55:04;;;;;;;17.38;11.50;;;1.10;99.90;;;;;;4730183;30;20053;-78
2021/04/13 05:57:32;;;;;;;16.40;11.75;;;1.10;99.90;;;;;;4730030;30;20070;-78
2021/04/13 06:00:05;;;;;;;17.42;11.73;;;1.10;99.90;;;;;;4738481;30;20044;-78
2021/04/13 06:02:36;;;;;;;16.58;12.05;;;1.10;99.90;;;;;;4749278;30;20048;-78
2021/04/13 06:05:08;;;;;;;17.42;11.80;;;1.10;99.90;;;;;;4719185;30;20148;-78
2021/04/13 06:07:34;;;;;;;15.48;10.90;;;1.10;99.90;;;;;;4719036;30;20055;-78
2021/04/13 06:10:08;;;;;;;17.02;11.32;;;1.10;99.90;;;;;;4733814;30;20145;-79
2021/04/13 06:12:39;;;;;;;15.25;11.00;;;1.10;99.90;;;;;;4740689;30;20148;-78
2021/04/13 06:15:07;;;;;;;14.68;10.23;;;1.10;99.90;;;;;;4727380;30;20113;-78
2021/04/13 06:17:39;;;;;;;18.23;11.63;;;1.10;99.90;;;;;;4730722;30;20049;-79
2021/04/13 06:20:11;;;;;;;16.45;11.35;;;1.10;99.90;;;;;;4718513;30;20310;-78
2021/04/13 06:22:37;;;;;;;17.10;11.25;;;1.10;99.90;;;;;;4718534;30;20183;-78
2021/04/13 06:25:10;;;;;;;17.33;11.65;;;1.10;99.90;;;;;;4730937;30;20086;-78
2021/04/13 06:27:36;;;;;;;17.63;11.30;;;1.00;99.90;;;;;;4716737;30;20432;-78
2021/04/13 06:30:08;;;;;;;18.50;11.82;;;1.00;99.90;;;;;;4727261;30;20056;-78
2021/04/13 06:32:40;;;;;;;17.20;10.82;;;1.00;99.90;;;;;;4749663;30;20139;-78
2021/04/13 06:35:07;;;;;;;17.45;11.90;;;1.10;99.90;;;;;;4723394;30;20087;-78
2021/04/13 06:37:41;;;;;;;16.48;11.27;;;1.10;99.90;;;;;;4715981;30;20144;-78
2021/04/13 06:40:49;;;;;;;18.90;11.70;;;1.20;99.90;;;;;;4717240;30;20067;-78
2021/04/13 06:43:37;;;;;;;16.58;10.93;;;1.30;99.90;;;;;;4740379;30;20572;-78
2021/04/13 06:46:09;;;;;;;18.63;11.50;;;1.30;99.90;;;;;;4719227;30;20106;-78
2021/04/13 06:48:59;;;;;;;19.63;12.68;;;1.40;99.90;;;;;;4748114;30;20509;-78
2021/04/13 06:51:48;;;;;;;15.25;10.27;;;1.50;99.90;;;;;;4732819;30;20133;-78
2021/04/13 06:54:29;;;;;;;14.57;10.60;;;1.60;99.90;;;;;;4719259;30;20139;-79
2021/04/13 06:57:12;;;;;;;16.15;10.48;;;1.70;99.90;;;;;;4719162;30;20048;-78
2021/04/13 06:59:59;;;;;;;15.20;9.95;;;1.70;99.90;;;;;;4718205;30;20052;-78
2021/04/13 07:02:35;;;;;;;14.73;10.50;;;1.70;99.90;;;;;;4725591;30;20048;-78
2021/04/13 07:05:19;;;;;;;15.15;10.20;;;1.70;99.90;;;;;;4732908;30;20048;-79
2021/04/13 07:08:09;;;;;;;;;;;1.70;99.90;;;;;;4732869;30;20047;-79
2021/04/13 07:10:46;;;;;;;15.60;9.77;;;1.80;99.90;;;;;;4733405;30;19932;-78
2021/04/13 07:13:32;;;;;;;15.73;11.32;;;1.80;99.90;;;;;;4749500;30;20048;-79
2021/04/13 07:16:12;;;;;;;19.73;10.90;;;1.90;99.90;;;;;;4733078;30;20045;-78
2021/04/13 07:19:12;;;;;;;20.10;12.63;;;2.00;99.90;;;;;;4733696;30;20209;-78
2021/04/13 07:22:17;;;;;;;18.58;10.98;;;2.10;99.90;;;;;;4733205;30;20055;-78
2021/04/13 07:25:01;;;;;;;15.57;10.68;;;2.20;99.90;;;;;;4719320;30;20524;-78
2021/04/13 07:27:45;;;;;;;19.80;12.23;;;2.20;99.90;;;;;;4733456;30;20560;-78
2021/04/13 07:30:45;;;;;;;14.13;10.63;;;2.20;99.90;;;;;;4714038;30;20048;-79
2021/04/13 07:33:17;;;;;;;14.93;10.10;;;2.30;99.90;;;;;;4718722;30;20055;-78
2021/04/13 07:35:44;;;;;;;15.68;10.45;;;2.30;99.90;;;;;;4718830;30;20147;-79
2021/04/13 07:38:26;;;;;;;15.85;11.57;;;2.30;99.90;;;;;;4718486;30;20155;-79
2021/04/13 07:41:08;;;;;;;15.07;11.60;;;2.30;99.90;;;;;;4733154;30;20499;-79
2021/04/13 07:43:46;;;;;;;14.60;10.77;;;2.30;99.90;;;;;;4719108;30;20151;-79
2021/04/13 07:46:32;;;;;;;13.02;9.90;;;2.40;99.90;;;;;;4719186;30;20090;-78
2021/04/13 07:49:15;;;;;;;17.63;10.05;;;2.50;99.90;;;;;;4719187;30;20052;-79
2021/04/13 07:51:57;;;;;;;14.90;10.15;;;2.60;99.90;;;;;;4748874;30;20482;-79
2021/04/13 07:54:45;;;;;;;15.38;10.75;;;2.80;99.90;;;;;;4735717;30;20133;-78
2021/04/13 07:57:44;;;;;;;16.45;9.55;;;3.00;99.90;;;;;;4723728;30;20048;-78
2021/04/13 08:00:21;;;;;;;14.70;9.55;;;3.10;99.90;;;;;;4735129;30;20135;-78
2021/04/13 08:03:07;;;;;;;13.65;9.18;;;3.20;99.90;;;;;;4736142;30;20048;-78
2021/04/13 08:05:44;;;;;;;11.10;8.63;;;3.30;99.90;;;;;;4736626;30;20055;-78
2021/04/13 08:08:44;;;;;;;16.10;9.68;;;3.40;99.90;;;;;;4723844;30;20130;-78
2021/04/13 08:11:18;;;;;;;14.27;7.88;;;3.40;99.90;;;;;;4724224;30;20522;-78
2021/04/13 08:13:53;;;;;;;12.48;8.75;;;3.50;99.90;;;;;;4754203;30;20058;-78
2021/04/13 08:16:35;;;;;;;14.45;7.72;;;3.40;99.90;;;;;;4723154;30;20045;-78
2021/04/13 08:19:34;;;;;;;13.50;9.68;;;3.30;99.90;;;;;;4736310;30;20040;-78
2021/04/13 08:22:08;;;;;;;13.43;8.75;;;3.30;99.90;;;;;;4721215;30;20086;-78
2021/04/13 08:25:01;;;;;;;10.43;7.72;;;3.40;99.90;;;;;;4732032;30;20106;-81
2021/04/13 08:35:40;;;;;;;10.02;7.07;;;4.00;99.90;;;;;;4780346;30;20062;-81
2021/04/13 09:06:57;;;;;;;10.05;6.53;;;5.00;99.90;;;;;;5216806;24;20061;-83
2021/04/13 09:09:54;;;;;;;8.60;6.30;;;4.90;99.90;;;;;;4771644;30;20113;-82
2021/04/13 09:12:53;;;;;;;9.55;6.88;;;4.80;99.90;;;;;;4737908;30;20072;-82
2021/04/13 09:15:29;;;;;;;15.00;9.70;;;4.80;99.90;;;;;;4760902;30;20060;-83
2021/04/13 09:18:39;;;;;;;33.85;16.33;;;4.80;99.90;;;;;;4749921;30;20058;-83
2021/04/13 09:21:30;;;;;;;25.40;14.50;;;4.80;99.90;;;;;;4764385;30;20048;-83
2021/04/13 09:24:19;;;;;;;20.85;11.57;;;4.70;99.90;;;;;;4731411;30;20048;-83
2021/04/13 09:27:46;;;;;;;13.40;7.47;;;4.90;99.90;;;;;;4733491;30;20056;-83
2021/04/13 09:30:27;;;;;;;17.00;10.02;;;5.10;99.90;;;;;;4750564;30;20071;-82
2021/04/13 09:33:36;;;;;;;11.88;8.60;;;5.10;99.90;;;;;;4736685;30;20080;-81
2021/04/13 09:36:43;;;;;;;9.35;6.63;;;5.00;99.90;;;;;;4733585;30;20064;-81
2021/04/13 13:12:17;;;;;;;5.85;4.38;;;6.00;89.80;;;;;;5067572;24;20422;-83
2021/04/13 13:15:47;;;;;;;5.20;4.28;;;6.00;89.50;;;;;;4769156;30;20046;-82
2021/04/13 13:25:23;;;;;;;4.35;3.60;;;6.50;79.50;;;;;;4770681;30;20055;-82
2021/04/13 13:27:51;;;;;;;4.47;3.90;;;6.90;75.40;;;;;;4790532;29;20105;-81
2021/04/13 13:30:33;;;;;;;5.35;4.55;;;7.10;75.60;;;;;;4774297;29;20060;-78
2021/04/13 14:33:37;;;;;;;6.18;4.30;;;8.20;68.70;;;;;;5113202;24;20126;-82
2021/04/13 15:48:34;;;;;;;5.93;4.57;;;7.60;62.40;;;;;;4791323;29;20576;-81
2021/04/13 15:51:29;;;;;;;6.55;4.80;;;8.10;61.10;;;;;;4782031;29;20055;-75
2021/04/13 16:07:15;;;;;;;3.97;3.58;;;11.40;50.60;;;;;;5861304;24;20319;31
2021/04/13 16:09:41;;;;;;;4.72;3.88;;;11.90;50.10;;;;;;4750574;30;20390;-80
2021/04/13 16:12:13;;;;;;;9.30;4.32;;;12.40;47.30;;;;;;4757368;30;20159;-80
2021/04/13 16:14:39;;;;;;;3.85;3.47;;;12.80;45.30;;;;;;4748586;30;20048;-80
2021/04/13 16:17:10;;;;;;;5.18;4.15;;;12.80;43.30;;;;;;4751408;30;20040;-80
2021/04/13 16:19:42;;;;;;;6.38;4.40;;;12.50;45.10;;;;;;4750424;30;20119;-79
2021/04/13 16:22:13;;;;;;;5.57;4.38;;;12.30;45.90;;;;;;4750660;30;20314;-80
2021/04/13 16:24:45;;;;;;;7.85;3.58;;;12.20;45.50;;;;;;4750607;30;20080;-79
2021/04/13 16:27:17;;;;;;;4.32;3.78;;;11.70;43.80;;;;;;4751147;30;20135;-80
2021/04/13 16:29:48;;;;;;;4.82;4.05;;;11.50;44.60;;;;;;4749897;30;20048;-80
2021/04/13 16:32:28;;;;;;;5.13;4.45;;;11.60;45.80;;;;;;4749963;30;20058;-80
2021/04/13 16:35:00;;;;;;;4.50;3.97;;;11.00;44.60;;;;;;4735319;30;20125;-80
2021/04/13 16:37:29;;;;;;;6.53;4.20;;;10.10;45.70;;;;;;4750039;30;20142;-79
2021/04/13 16:40:13;;;;;;;7.13;4.85;;;9.70;49.00;;;;;;4741098;30;20135;-80
2021/04/13 16:43:09;;;;;;;5.63;4.07;;;9.20;50.70;;;;;;4742706;30;20416;-80
2021/04/13 16:46:03;;;;;;;3.70;3.25;;;8.80;53.10;;;;;;4735812;30;20049;-80
2021/04/13 16:48:42;;;;;;;9.25;3.60;;;8.40;50.60;;;;;;4732015;30;20131;-80
2021/04/13 16:51:18;;;;;;;4.40;3.10;;;8.20;51.40;;;;;;4732531;30;20052;-80
2021/04/13 16:53:49;;;;;;;3.88;3.10;;;8.00;51.30;;;;;;4733182;30;20561;-80
2021/04/13 16:56:21;;;;;;;3.65;2.65;;;7.80;52.30;;;;;;4732571;30;20071;-80
2021/04/13 16:58:54;;;;;;;6.05;3.35;;;7.70;52.30;;;;;;4732237;30;20040;-80
2021/04/13 17:01:39;;;;;;;5.28;3.08;;;7.50;53.00;;;;;;4733578;30;20098;-80
2021/04/13 17:04:33;;;;;;;5.00;3.47;;;7.40;54.40;;;;;;4730214;30;20055;-80
2021/04/13 17:07:26;;;;;;;12.07;10.57;;;7.40;55.80;;;;;;4714924;30;20052;-79
2021/04/13 17:10:19;;;;;;;5.95;3.00;;;7.30;55.60;;;;;;4731588;30;20057;-80
2021/04/13 17:12:58;;;;;;;5.10;3.47;;;7.20;55.80;;;;;;4718041;30;20159;-80
2021/04/13 17:15:40;;;;;;;;;;;7.20;56.40;;;;;;4731029;30;20311;-79
2021/04/13 17:18:09;;;;;;;4.45;3.35;;;7.10;57.40;;;;;;4729428;30;19958;-79
2021/04/13 17:20:45;;;;;;;4.50;3.25;;;7.00;57.50;;;;;;4733077;30;20068;-80
2021/04/13 17:23:23;;;;;;;6.15;3.92;;;7.00;57.70;;;;;;4733184;30;20147;-80
2021/04/13 17:31:52;;;;;;;7.18;3.58;;;6.60;59.70;;;;;;4858385;24;20074;-78
2021/04/13 17:34:19;;;;;;;5.53;3.83;;;6.50;60.90;;;;;;4781047;30;20055;-77
2021/04/13 17:36:47;;;;;;;4.50;3.55;;;6.50;61.10;;;;;;4778994;30;20047;-77
2021/04/13 17:39:37;;;;;;;4.75;4.25;;;6.50;61.60;;;;;;4778834;30;20051;-77
2021/04/13 17:42:07;;;;;;;4.80;4.13;;;6.40;62.70;;;;;;4779411;30;20131;-77
2021/04/13 17:44:40;;;;;;;5.78;4.18;;;6.30;63.40;;;;;;4779222;30;20086;-77
2021/04/13 17:47:27;;;;;;;5.22;3.90;;;6.30;64.10;;;;;;4765129;30;20128;-77
2021/04/13 17:49:57;;;;;;;7.45;4.82;;;6.20;65.90;;;;;;4779380;30;20059;-77
2021/04/13 17:52:29;;;;;;;5.90;4.43;;;6.20;67.50;;;;;;4765492;30;20055;-78
2021/04/13 17:55:02;;;;;;;5.82;4.07;;;6.10;66.10;;;;;;4781450;30;20081;-78
2021/04/13 17:57:29;;;;;;;5.78;4.30;;;6.10;67.30;;;;;;4782059;29;20051;-78
2021/04/13 18:00:02;;;;;;;8.40;4.97;;;6.10;68.00;;;;;;4767350;30;20423;-78
2021/04/13 18:02:41;;;;;;;20.23;11.18;;;6.00;71.60;;;;;;4780444;30;20055;-77
2021/04/13 18:05:20;;;;;;;17.95;10.07;;;5.80;74.10;;;;;;4765449;30;20073;-78
2021/04/13 18:08:06;;;;;;;14.88;9.45;;;5.80;76.60;;;;;;4764871;30;20055;-77
2021/04/13 18:10:37;;;;;;;8.50;6.03;;;5.70;78.90;;;;;;4760415;30;20066;-77
2021/04/13 18:13:19;;;;;;;11.93;6.88;;;5.50;81.40;;;;;;4776002;30;20051;-77
2021/04/13 18:15:56;;;;;;;6.63;4.80;;;5.40;84.60;;;;;;4759961;30;20079;-78
2021/04/13 18:18:48;;;;;;;7.38;5.30;;;5.10;90.70;;;;;;4760094;30;20047;-77
2021/04/13 18:21:24;;;;;;;6.30;4.60;;;4.90;95.30;;;;;;4770129;29;20520;-79
2021/04/13 18:23:59;;;;;;;7.53;5.03;;;4.60;98.60;;;;;;4758991;30;20055;-77
2021/04/13 18:26:42;;;;;;;6.97;5.43;;;4.30;99.90;;;;;;4772534;30;20056;-77
2021/04/13 18:29:20;;;;;;;6.93;4.28;;;4.10;99.90;;;;;;4772053;30;20051;-77
2021/04/13 18:32:05;;;;;;;5.75;4.20;;;3.80;99.90;;;;;;4786646;29;20126;-79
2021/04/13 18:34:47;;;;;;;4.80;3.83;;;3.50;99.90;;;;;;4759838;30;20049;-77
2021/04/13 18:37:38;;;;;;;5.95;4.18;;;3.40;99.90;;;;;;4759887;30;20047;-77
2021/04/13 18:40:41;;;;;;;4.53;3.28;;;3.40;99.90;;;;;;4761761;30;20071;-76
2021/04/13 18:43:20;;;;;;;6.68;4.10;;;3.30;99.90;;;;;;4774937;30;20044;-76
2021/04/13 18:46:00;;;;;;;5.57;3.72;;;3.30;99.90;;;;;;4758002;30;20066;-76
2021/04/13 18:48:38;;;;;;;5.82;3.97;;;3.30;99.90;;;;;;4777411;30;20055;-77
2021/04/13 18:51:18;;;;;;;7.28;4.13;;;3.20;99.90;;;;;;4761749;30;20454;-76
2021/04/13 18:54:01;;;;;;;4.63;3.60;;;2.90;99.90;;;;;;4762921;30;20054;-77
2021/04/13 18:56:38;;;;;;;4.18;3.40;;;2.80;99.90;;;;;;4789640;29;20683;-75
2021/04/13 18:59:19;;;;;;;6.28;3.92;;;2.70;99.90;;;;;;4771700;30;20051;-79
2021/04/13 19:01:55;;;;;;;6.30;3.75;;;2.50;99.90;;;;;;4773987;30;20066;-77
2021/04/13 19:04:22;;;;;;;4.38;3.50;;;2.50;99.90;;;;;;4797002;29;20055;-76
2021/04/13 19:06:56;;;;;;;4.82;3.55;;;2.40;99.90;;;;;;4774918;29;20082;-78
2021/04/13 19:09:34;;;;;;;5.13;3.58;;;2.30;99.90;;;;;;4773621;30;20047;-76
2021/04/13 19:12:16;;;;;;;4.88;3.97;;;2.30;99.90;;;;;;4772698;30;20162;-76
2021/04/13 19:14:52;;;;;;;5.97;4.28;;;2.20;99.90;;;;;;4763336;30;20047;-77
2021/04/13 19:17:38;;;;;;;4.88;3.70;;;2.20;99.90;;;;;;4789892;29;20142;-78
2021/04/13 19:20:11;;;;;;;4.78;3.60;;;2.10;99.90;;;;;;4773067;30;20073;-76
2021/04/13 19:23:29;;;;;;;6.47;4.20;;;2.10;99.90;;;;;;4775983;30;20081;-77
2021/04/13 19:26:27;;;;;;;5.75;3.97;;;2.00;99.90;;;;;;4783247;29;20047;-77
2021/04/13 19:28:59;;;;;;;5.90;3.92;;;2.00;99.90;;;;;;4761188;30;20133;-78
2021/04/13 19:31:40;;;;;;;5.80;3.78;;;2.00;99.90;;;;;;4777767;30;20110;-79
2021/04/13 19:34:16;;;;;;;12.10;3.83;;;1.90;99.90;;;;;;4780378;30;20647;-77
2021/04/13 19:37:13;;;;;;;6.70;4.00;;;1.80;99.90;;;;;;4791164;30;20078;-77
2021/04/13 19:39:39;;;;;;;4.78;3.63;;;1.80;99.90;;;;;;4793536;30;20055;-77
2021/04/13 19:42:21;;;;;;;7.68;4.47;;;1.80;99.90;;;;;;4780886;30;20058;-77
2021/04/13 19:45:00;;;;;;;4.90;3.55;;;1.70;99.90;;;;;;4780056;30;20055;-77
2021/04/13 19:47:31;;;;;;;7.45;4.32;;;1.70;99.90;;;;;;4764455;30;20059;-78
2021/04/13 19:50:03;;;;;;;7.38;4.25;;;1.60;99.90;;;;;;4782513;30;20508;-77
2021/04/13 19:52:37;;;;;;;7.80;3.97;;;1.60;99.90;;;;;;4783080;30;20051;-79
2021/04/13 19:55:12;;;;;;;6.43;4.05;;;1.60;99.90;;;;;;4797493;29;20063;-77
2021/04/13 19:57:43;;;;;;;5.13;3.90;;;1.50;99.90;;;;;;4781103;30;20131;-80
2021/04/13 20:00:20;;;;;;;5.35;3.95;;;1.50;99.90;;;;;;4771940;30;20047;-77
2021/04/13 20:02:47;;;;;;;5.70;4.15;;;1.50;99.90;;;;;;4767751;30;20058;-78
2021/04/13 20:05:19;;;;;;;5.78;3.60;;;1.40;99.90;;;;;;4781947;30;20055;-77
2021/04/13 20:07:54;;;;;;;6.25;4.15;;;1.30;99.90;;;;;;4764489;30;20055;-77
2021/04/13 20:10:27;;;;;;;5.80;3.60;;;1.30;99.90;;;;;;4785801;29;20085;-76
2021/04/13 20:12:55;;;;;;;5.63;4.05;;;1.30;99.90;;;;;;4772327;30;20071;-77
2021/04/13 20:15:47;;;;;;;4.97;3.55;;;1.40;99.90;;;;;;4758466;30;20443;-76
2021/04/13 20:18:17;;;;;;;6.10;3.97;;;1.40;99.90;;;;;;4771998;30;20079;-77
2021/04/13 20:20:50;;;;;;;6.55;4.50;;;1.30;99.90;;;;;;4766957;30;20624;-78
2021/04/13 20:23:23;;;;;;;6.93;4.22;;;1.20;99.90;;;;;;4774352;30;20062;-77
2021/04/13 20:26:07;;;;;;;6.75;4.25;;;1.20;99.90;;;;;;4774099;29;20452;-79
2021/04/13 20:28:37;;;;;;;5.82;3.97;;;1.10;99.90;;;;;;4763591;30;20127;-77
2021/04/13 20:31:16;;;;;;;5.80;3.85;;;1.10;99.90;;;;;;4765025;30;20089;-77
2021/04/13 20:34:01;;;;;;;6.10;4.55;;;1.10;99.90;;;;;;4769763;30;20112;-76
2021/04/13 20:39:31;;;;;;;5.38;3.83;;;0.90;99.90;;;;;;4763401;30;20159;-78